Date,TemperatureHighF,TemperatureAvgF,TemperatureLowF,DewpointHighF,DewpointAvgF,DewpointLowF,HumidityHigh,HumidityAvg,HumidityLow,PressureMaxIn,PressureMinIn,WindSpeedMaxMPH,WindSpeedAvgMPH,GustSpeedMaxMPH,PrecipitationSumIn
2013-3-1,24,23,21,-100,-100,-100,0,0,100,0.00,40.00,0,-999,0,0.00
2013-3-2,32,25,21,-100,-100,-100,0,0,100,0.00,40.00,0,-999,0,0.00
2013-3-3,40,33,29,-100,-100,-100,0,0,100,0.00,40.00,0,-999,0,0.00
2013-3-4,37,32,30,-100,-100,-100,0,0,100,0.00,40.00,0,-999,0,0.00
2013-3-5,32,26,24,-100,-100,-100,0,0,100,0.00,40.00,0,-999,0,0.00
2013-3-6,39,28,20,-100,-100,-100,0,0,100,0.00,40.00,0,-999,0,0.00
2013-3-7,47,35,23,-100,-100,-100,0,0,100,0.00,40.00,0,-999,0,0.00
2013-3-8,53,39,30,-100,-100,-100,0,0,100,0.00,40.00,0,-999,0,0.00
2013-3-9,54,44,33,-100,-100,-100,0,0,100,0.00,40.00,0,-999,0,0.00
2013-3-10,33,26,23,-100,-100,-100,0,0,100,0.00,40.00,0,-999,0,0.00
2013-3-11,29,21,18,-100,-100,-100,0,0,100,0.00,40.00,0,-999,0,0.00
2013-3-12,29,25,18,-100,-100,-100,0,0,100,0.00,40.00,0,-999,0,0.00
2013-3-13,40,24,18,-100,-100,-100,0,0,100,0.00,40.00,0,-999,0,0.00
2013-3-14,51,38,32,-100,-100,-100,0,0,100,0.00,40.00,0,-999,0,0.00
2013-3-15,54,41,32,-100,-100,-100,0,0,100,0.00,40.00,0,-999,0,0.00
2013-3-16,39,30,25,-100,-100,-100,0,0,100,0.00,40.00,0,-999,0,0.00
2013-3-17,44,30,21,-100,-100,-100,0,0,100,0.00,40.00,0,-999,0,0.00
2013-3-18,41,32,29,-100,-100,-100,0,0,100,0.00,40.00,0,-999,0,0.00
2013-3-19,48,32,20,-100,-100,-100,0,0,100,0.00,40.00,0,-999,0,0.00
2013-3-20,48,23,15,-100,-100,-100,0,0,100,0.00,40.00,0,-999,0,0.00
2013-3-21,29,23,20,-100,-100,-100,0,0,100,0.00,40.00,0,-999,0,0.00
2013-3-22,32,28,24,-100,-100,-100,0,0,100,0.00,40.00,0,-999,0,0.00
2013-3-23,34,30,26,-100,-100,-100,0,0,100,0.00,40.00,0,-999,0,0.00
2013-3-24,27,23,22,-100,-100,-100,0,0,100,0.00,40.00,0,-999,0,0.00
2013-3-25,27,23,21,-100,-100,-100,0,0,100,0.00,40.00,0,-999,0,0.00
2013-3-26,39,24,15,-100,-100,-100,0,0,100,0.00,40.00,0,-999,0,0.00
2013-3-27,52,37,26,-100,-100,-100,0,0,100,0.00,40.00,0,-999,0,0.00
2013-3-28,60,41,25,-100,-100,-100,0,0,100,0.00,40.00,0,-999,0,0.00
2013-3-29,69,47,29,-100,-100,-100,0,0,100,0.00,40.00,0,-999,0,0.00
2013-3-30,62,55,47,-100,-100,-100,0,0,100,0.00,40.00,0,-999,0,0.00
2013-3-31,52,45,36,-100,-100,-100,0,0,100,0.00,40.00,0,-999,0,0.00